createdAt,value
2018-02-14T00:00:15.963Z,3.30
2018-02-14T00:02:43.561Z,3.30
2018-02-14T00:05:11.894Z,3.20
2018-02-14T00:07:39.464Z,3.20
2018-02-14T00:10:07.015Z,3.30
2018-02-14T00:12:34.584Z,3.20
2018-02-14T00:15:02.142Z,3.10
2018-02-14T00:17:29.691Z,3.10
2018-02-14T00:19:57.319Z,3.00
2018-02-14T00:22:25.646Z,3.00
2018-02-14T00:24:53.204Z,3.00
2018-02-14T00:27:20.802Z,2.90
2018-02-14T00:29:48.324Z,2.90
2018-02-14T00:32:15.884Z,2.80
2018-02-14T00:34:43.792Z,2.80
2018-02-14T00:37:11.313Z,2.90
2018-02-14T00:39:38.953Z,2.90
2018-02-14T00:42:06.520Z,3.00
2018-02-14T00:44:34.079Z,3.00
2018-02-14T00:47:02.411Z,3.00
2018-02-14T00:49:30.778Z,2.90
2018-02-14T00:51:58.331Z,2.90
2018-02-14T00:54:25.908Z,2.90
2018-02-14T00:56:53.470Z,3.00
2018-02-14T00:59:21.936Z,2.90
2018-02-14T01:01:49.539Z,2.90
2018-02-14T01:04:17.131Z,3.10
2018-02-14T01:06:44.695Z,3.00
2018-02-14T01:09:12.241Z,3.00
2018-02-14T01:11:39.815Z,3.10
2018-02-14T01:14:07.362Z,3.10
2018-02-14T01:16:34.962Z,3.10
2018-02-14T01:19:08.222Z,3.10
2018-02-14T01:21:35.777Z,3.00
2018-02-14T01:24:03.402Z,3.00
2018-02-14T01:26:30.986Z,3.20
2018-02-14T01:28:58.546Z,3.10
2018-02-14T01:31:26.172Z,3.10
2018-02-14T01:33:54.488Z,2.90
2018-02-14T01:36:22.056Z,2.90
2018-02-14T01:38:49.605Z,2.90
2018-02-14T01:41:17.161Z,2.80
2018-02-14T01:43:44.713Z,2.60
2018-02-14T01:46:12.285Z,2.60
2018-02-14T01:48:39.895Z,2.60
2018-02-14T01:51:07.469Z,2.60
2018-02-14T01:53:35.013Z,1.90
2018-02-14T01:56:02.581Z,2.30
2018-02-14T01:58:31.484Z,2.30
2018-02-14T02:00:59.044Z,2.30
2018-02-14T02:03:27.341Z,2.30
2018-02-14T02:05:54.918Z,2.30
2018-02-14T02:10:55.292Z,2.40
2018-02-14T02:13:22.832Z,2.40
2018-02-14T02:15:50.404Z,2.50
2018-02-14T02:18:17.938Z,2.50
2018-02-14T02:20:45.498Z,2.50
2018-02-14T02:23:13.091Z,2.60
2018-02-14T02:25:40.631Z,2.50
2018-02-14T02:28:08.196Z,2.50
2018-02-14T02:30:35.756Z,2.60
2018-02-14T02:33:03.265Z,2.70
2018-02-14T02:35:30.828Z,2.60
2018-02-14T02:37:58.370Z,2.60
2018-02-14T02:40:31.685Z,2.50
2018-02-14T02:42:59.238Z,2.50
2018-02-14T02:45:26.890Z,2.40
2018-02-14T02:47:54.450Z,2.30
2018-02-14T02:50:22.026Z,2.30
2018-02-14T02:52:49.593Z,2.40
2018-02-14T02:55:18.989Z,2.20
2018-02-14T02:57:46.559Z,2.10
2018-02-14T03:00:14.158Z,2.00
2018-02-14T03:02:41.695Z,2.00
2018-02-14T03:05:09.283Z,2.00
2018-02-14T03:07:36.831Z,2.00
2018-02-14T03:10:05.176Z,2.00
2018-02-14T03:12:32.710Z,2.00
2018-02-14T03:15:00.283Z,2.00
2018-02-14T03:17:28.581Z,2.00
2018-02-14T03:19:56.157Z,2.00
2018-02-14T03:22:23.688Z,2.00
2018-02-14T03:24:51.284Z,2.00
2018-02-14T03:27:18.822Z,2.10
2018-02-14T03:29:46.361Z,2.00
2018-02-14T03:32:13.976Z,2.00
2018-02-14T03:34:41.485Z,2.00
2018-02-14T03:37:09.044Z,2.00
2018-02-14T03:39:36.566Z,2.00
2018-02-14T03:42:04.149Z,2.10
2018-02-14T03:44:32.442Z,2.10
2018-02-14T03:46:59.987Z,2.10
2018-02-14T03:49:28.329Z,2.00
2018-02-14T03:51:55.852Z,2.10
2018-02-14T03:54:23.448Z,2.20
2018-02-14T03:56:51.042Z,2.10
2018-02-14T03:59:19.380Z,2.10
2018-02-14T04:01:46.934Z,2.10
2018-02-14T04:04:14.509Z,2.10
2018-02-14T04:06:42.105Z,1.90
2018-02-14T04:09:10.449Z,1.90
2018-02-14T04:11:38.015Z,1.90
2018-02-14T04:14:05.548Z,1.90
2018-02-14T04:16:33.106Z,1.90
2018-02-14T04:19:00.666Z,2.10
2018-02-14T04:21:28.232Z,2.00
2018-02-14T04:23:55.808Z,2.10
2018-02-14T04:26:23.351Z,2.00
2018-02-14T04:28:50.943Z,2.00
2018-02-14T04:31:18.501Z,2.00
2018-02-14T04:33:46.088Z,2.10
2018-02-14T04:36:13.624Z,2.00
2018-02-14T04:38:41.229Z,2.00
2018-02-14T04:41:08.793Z,2.00
2018-02-14T04:43:36.505Z,2.00
2018-02-14T04:46:04.093Z,1.90
2018-02-14T04:48:31.602Z,1.80
2018-02-14T04:50:59.184Z,1.70
2018-02-14T04:53:26.771Z,1.80
2018-02-14T04:55:54.292Z,1.90
2018-02-14T04:58:21.855Z,1.80
2018-02-14T05:00:49.396Z,1.80
2018-02-14T05:03:16.975Z,1.70
2018-02-14T05:05:44.574Z,1.70
2018-02-14T05:08:12.129Z,1.70
2018-02-14T05:10:39.694Z,1.80
2018-02-14T05:13:07.273Z,1.70
2018-02-14T05:15:34.804Z,1.70
2018-02-14T05:18:02.347Z,1.60
2018-02-14T05:20:30.628Z,1.60
2018-02-14T05:22:58.205Z,1.60
2018-02-14T05:25:25.741Z,1.70
2018-02-14T05:27:53.301Z,1.70
2018-02-14T05:30:20.931Z,1.70
2018-02-14T05:32:48.468Z,1.60
2018-02-14T05:35:16.076Z,1.50
2018-02-14T05:37:43.663Z,1.50
2018-02-14T05:40:11.241Z,1.50
2018-02-14T05:42:38.757Z,1.40
2018-02-14T05:45:06.362Z,1.40
2018-02-14T05:47:33.894Z,1.40
2018-02-14T05:50:01.450Z,1.40
2018-02-14T05:52:29.130Z,1.40
2018-02-14T05:57:38.642Z,1.30
2018-02-14T06:00:06.212Z,1.20
2018-02-14T06:02:33.777Z,1.20
2018-02-14T06:05:01.759Z,1.10
2018-02-14T06:07:29.335Z,1.20
2018-02-14T06:09:56.870Z,1.20
2018-02-14T06:12:24.485Z,1.20
2018-02-14T06:14:52.086Z,1.20
2018-02-14T06:17:19.631Z,1.20
2018-02-14T06:19:47.209Z,1.10
2018-02-14T06:22:15.529Z,1.10
2018-02-14T06:24:43.078Z,1.10
2018-02-14T06:27:10.599Z,1.20
2018-02-14T06:29:38.199Z,1.10
2018-02-14T06:32:05.827Z,1.10
2018-02-14T06:34:33.432Z,1.00
2018-02-14T06:37:01.109Z,0.90
2018-02-14T06:39:28.683Z,0.90
2018-02-14T06:41:56.271Z,0.80
2018-02-14T06:44:23.886Z,0.80
2018-02-14T06:46:51.444Z,0.90
2018-02-14T06:49:19.052Z,1.00
2018-02-14T06:51:46.627Z,1.10
2018-02-14T06:54:14.229Z,0.90
2018-02-14T06:56:41.808Z,0.80
2018-02-14T06:59:09.499Z,0.80
2018-02-14T07:01:37.136Z,0.80
2018-02-14T07:04:05.517Z,0.90
2018-02-14T07:06:33.299Z,0.80
2018-02-14T07:09:01.040Z,0.90
2018-02-14T07:11:28.734Z,0.80
2018-02-14T07:13:56.563Z,0.80
2018-02-14T07:16:24.332Z,0.80
2018-02-14T07:18:51.987Z,0.80
2018-02-14T07:21:19.539Z,0.80
2018-02-14T07:23:47.148Z,0.90
2018-02-14T07:26:14.710Z,0.80
2018-02-14T07:28:43.040Z,0.80
2018-02-14T07:31:10.659Z,0.80
2018-02-14T07:33:39.314Z,0.80
2018-02-14T07:36:06.910Z,0.80
2018-02-14T07:38:34.507Z,0.90
2018-02-14T07:41:02.068Z,1.00
2018-02-14T07:43:29.635Z,1.00
2018-02-14T07:45:57.186Z,1.00
2018-02-14T07:48:24.747Z,1.00
2018-02-14T07:50:52.305Z,1.10
2018-02-14T07:53:19.979Z,1.20
2018-02-14T07:55:47.624Z,1.20
2018-02-14T07:58:15.158Z,1.30
2018-02-14T08:00:42.764Z,1.40
2018-02-14T08:03:10.543Z,1.40
2018-02-14T08:05:38.135Z,1.70
2018-02-14T08:08:05.731Z,1.80
2018-02-14T08:10:33.300Z,1.80
2018-02-14T08:13:00.927Z,2.00
2018-02-14T08:15:28.575Z,2.10
2018-02-14T08:17:56.256Z,2.10
2018-02-14T08:20:24.044Z,2.20
2018-02-14T08:22:51.642Z,2.30
2018-02-14T08:25:19.166Z,2.30
2018-02-14T08:27:46.780Z,2.40
2018-02-14T08:30:14.511Z,2.70
2018-02-14T08:32:42.252Z,2.80
2018-02-14T08:35:09.823Z,2.90
2018-02-14T08:37:37.541Z,3.00
2018-02-14T08:40:05.998Z,3.10
2018-02-14T08:42:33.617Z,3.00
2018-02-14T08:45:01.193Z,3.20
2018-02-14T08:47:28.954Z,3.30
2018-02-14T08:49:56.609Z,3.30
2018-02-14T08:52:24.371Z,3.50
2018-02-14T08:54:51.953Z,3.60
2018-02-14T08:57:19.605Z,3.70
2018-02-14T08:59:47.119Z,3.80
2018-02-14T09:02:14.727Z,3.80
2018-02-14T09:04:42.285Z,3.80
2018-02-14T09:07:09.891Z,3.80
2018-02-14T09:09:37.664Z,3.90
2018-02-14T09:12:05.208Z,4.00
2018-02-14T09:14:38.814Z,4.10
2018-02-14T09:17:06.383Z,4.10
2018-02-14T09:19:34.010Z,4.30
2018-02-14T09:22:01.648Z,4.30
2018-02-14T09:24:29.304Z,4.40
2018-02-14T09:26:56.864Z,4.30
2018-02-14T09:29:24.547Z,4.30
2018-02-14T09:31:52.227Z,4.40
2018-02-14T09:34:20.605Z,4.30
2018-02-14T09:36:48.367Z,4.30
2018-02-14T09:39:16.014Z,4.30
2018-02-14T09:44:25.810Z,4.40
2018-02-14T09:46:53.595Z,4.30
2018-02-14T09:49:21.154Z,4.40
2018-02-14T09:51:48.764Z,4.60
2018-02-14T09:54:16.393Z,4.70
2018-02-14T09:56:44.090Z,4.60
2018-02-14T09:59:11.636Z,4.70
2018-02-14T10:01:39.253Z,4.90
2018-02-14T10:04:07.709Z,5.00
2018-02-14T10:06:35.396Z,4.90
2018-02-14T10:09:03.837Z,5.00
2018-02-14T10:11:31.625Z,5.00
2018-02-14T10:14:00.150Z,5.10
2018-02-14T10:16:27.788Z,5.10
2018-02-14T10:18:55.323Z,5.10
2018-02-14T10:21:22.902Z,5.00
2018-02-14T10:23:50.509Z,5.10
2018-02-14T10:26:18.072Z,5.20
2018-02-14T10:28:45.813Z,5.20
2018-02-14T10:31:13.390Z,5.20
2018-02-14T10:33:41.124Z,5.10
2018-02-14T10:36:08.699Z,5.10
2018-02-14T10:38:37.331Z,5.30
2018-02-14T10:41:05.168Z,5.30
2018-02-14T10:43:32.914Z,5.20
2018-02-14T10:46:00.493Z,5.30
2018-02-14T10:48:28.020Z,5.40
2018-02-14T10:50:55.744Z,5.40
2018-02-14T10:53:23.615Z,5.50
2018-02-14T10:55:51.434Z,5.60
2018-02-14T10:58:19.007Z,5.60
2018-02-14T11:00:52.127Z,5.60
2018-02-14T11:03:25.408Z,5.60
2018-02-14T11:05:58.637Z,5.70
2018-02-14T11:08:27.134Z,5.70
2018-02-14T11:10:55.577Z,5.80
2018-02-14T11:13:23.235Z,5.70
2018-02-14T11:15:50.927Z,5.70
2018-02-14T11:18:18.462Z,5.70
2018-02-14T11:20:46.093Z,5.70
2018-02-14T11:23:13.657Z,5.70
2018-02-14T11:25:41.370Z,5.80
2018-02-14T11:28:08.986Z,5.80
2018-02-14T11:30:36.523Z,5.80
2018-02-14T11:33:04.101Z,5.80
2018-02-14T11:35:31.680Z,5.90
2018-02-14T11:37:59.211Z,6.00
2018-02-14T11:40:26.855Z,6.00
2018-02-14T11:42:54.444Z,6.10
2018-02-14T11:45:22.209Z,6.10
2018-02-14T11:47:49.852Z,6.10
2018-02-14T11:50:17.420Z,6.00
2018-02-14T11:52:45.785Z,6.10
2018-02-14T11:55:14.195Z,6.20
2018-02-14T11:57:41.853Z,6.10
2018-02-14T12:00:09.519Z,4.30
2018-02-14T12:02:37.094Z,6.30
2018-02-14T12:05:04.707Z,6.40
2018-02-14T12:07:32.272Z,6.40
2018-02-14T12:09:59.842Z,6.30
2018-02-14T12:12:27.409Z,6.40
2018-02-14T12:14:55.070Z,6.40
2018-02-14T12:17:22.631Z,6.50
2018-02-14T12:19:50.171Z,6.50
2018-02-14T12:22:17.733Z,6.50
2018-02-14T12:24:45.323Z,6.50
2018-02-14T12:27:12.872Z,6.50
2018-02-14T12:29:40.405Z,6.50
2018-02-14T12:32:07.992Z,6.60
2018-02-14T12:34:35.909Z,6.60
2018-02-14T12:37:03.448Z,6.70
2018-02-14T12:39:31.798Z,6.70
2018-02-14T12:41:59.373Z,6.70
2018-02-14T12:44:27.058Z,6.70
2018-02-14T12:46:55.373Z,6.80
2018-02-14T12:49:23.073Z,6.70
2018-02-14T12:51:50.777Z,6.80
2018-02-14T12:54:19.153Z,6.80
2018-02-14T12:56:46.820Z,6.80
2018-02-14T12:59:14.397Z,6.80
2018-02-14T13:01:42.016Z,6.80
2018-02-14T13:04:10.464Z,6.80
2018-02-14T13:06:38.003Z,6.80
2018-02-14T13:09:05.571Z,6.80
2018-02-14T13:11:33.252Z,6.80
2018-02-14T13:14:00.872Z,6.80
2018-02-14T13:16:28.513Z,6.80
2018-02-14T13:18:56.079Z,6.80
2018-02-14T13:21:24.517Z,6.90
2018-02-14T13:23:52.165Z,6.90
2018-02-14T13:26:19.919Z,6.90
2018-02-14T13:28:47.456Z,6.90
2018-02-14T13:31:15.038Z,6.90
2018-02-14T13:33:42.700Z,6.90
2018-02-14T13:36:10.299Z,6.90
2018-02-14T13:38:38.371Z,6.90
2018-02-14T13:41:05.948Z,6.90
2018-02-14T13:43:34.325Z,6.90
2018-02-14T13:46:02.153Z,6.90
2018-02-14T13:48:29.691Z,7.00
2018-02-14T13:50:57.251Z,7.00
2018-02-14T13:53:24.828Z,7.00
2018-02-14T13:55:52.547Z,7.00
2018-02-14T13:58:20.220Z,7.00
2018-02-14T14:00:47.775Z,6.90
2018-02-14T14:03:15.361Z,6.90
2018-02-14T14:05:42.931Z,7.00
2018-02-14T14:08:11.328Z,6.90
2018-02-14T14:10:39.099Z,7.00
2018-02-14T14:13:06.681Z,7.00
2018-02-14T14:15:34.314Z,7.00
2018-02-14T14:18:01.954Z,7.00
2018-02-14T14:20:29.562Z,7.00
2018-02-14T14:22:58.014Z,7.00
2018-02-14T14:25:31.185Z,7.00
2018-02-14T14:27:58.798Z,7.00
2018-02-14T14:30:26.328Z,6.90
2018-02-14T14:32:53.902Z,6.90
2018-02-14T14:35:21.437Z,6.90
2018-02-14T14:37:49.037Z,6.90
2018-02-14T14:40:16.812Z,6.90
2018-02-14T14:42:44.885Z,6.80
2018-02-14T14:45:13.170Z,6.90
2018-02-14T14:47:40.838Z,6.90
2018-02-14T14:50:08.443Z,6.90
2018-02-14T14:52:36.084Z,6.90
2018-02-14T14:55:03.959Z,6.90
2018-02-14T14:57:31.503Z,6.90
2018-02-14T14:59:59.087Z,6.90
2018-02-14T15:02:26.623Z,6.90
2018-02-14T15:04:54.411Z,6.80
2018-02-14T15:07:22.062Z,6.70
2018-02-14T15:09:49.582Z,6.80
2018-02-14T15:12:17.218Z,6.80
2018-02-14T15:14:44.780Z,6.80
2018-02-14T15:17:12.368Z,6.80
2018-02-14T15:19:39.972Z,6.80
2018-02-14T15:22:07.551Z,6.80
2018-02-14T15:24:35.154Z,6.80
2018-02-14T15:27:02.694Z,6.80
2018-02-14T15:29:30.240Z,6.80
2018-02-14T15:31:57.829Z,6.70
2018-02-14T15:34:25.395Z,6.70
2018-02-14T15:36:53.067Z,6.70
2018-02-14T15:39:20.781Z,6.70
2018-02-14T15:41:48.442Z,6.70
2018-02-14T15:44:15.991Z,6.60
2018-02-14T15:46:43.588Z,6.60
2018-02-14T15:49:11.106Z,6.60
2018-02-14T15:51:38.783Z,6.60
2018-02-14T15:54:06.357Z,6.60
2018-02-14T15:56:33.911Z,6.60
2018-02-14T15:59:02.267Z,6.50
2018-02-14T16:01:29.869Z,6.50
2018-02-14T16:03:57.424Z,6.50
2018-02-14T16:06:25.019Z,6.50
2018-02-14T16:08:52.580Z,6.50
2018-02-14T16:11:20.119Z,6.40
2018-02-14T16:13:47.683Z,6.50
2018-02-14T16:16:15.260Z,6.40
2018-02-14T16:18:43.472Z,6.40
2018-02-14T16:21:11.036Z,6.40
2018-02-14T16:23:38.591Z,6.30
2018-02-14T16:26:06.163Z,6.40
2018-02-14T16:28:33.796Z,6.40
2018-02-14T16:31:01.335Z,6.30
2018-02-14T16:33:28.947Z,6.30
2018-02-14T16:35:56.541Z,6.30
2018-02-14T16:38:24.352Z,6.20
2018-02-14T16:40:51.887Z,6.20
2018-02-14T16:43:19.438Z,6.10
2018-02-14T16:45:48.079Z,6.20
2018-02-14T16:48:15.666Z,6.20
2018-02-14T16:50:43.328Z,6.10
2018-02-14T16:53:10.904Z,6.10
2018-02-14T16:55:38.430Z,6.10
2018-02-14T16:58:06.754Z,6.10
2018-02-14T17:00:34.489Z,6.20
2018-02-14T17:03:02.129Z,6.10
2018-02-14T17:05:29.690Z,6.00
2018-02-14T17:07:57.257Z,6.00
2018-02-14T17:10:25.566Z,6.00
2018-02-14T17:12:53.150Z,6.00
2018-02-14T17:15:20.688Z,6.00
2018-02-14T17:17:48.243Z,5.90
2018-02-14T17:20:15.818Z,5.80
2018-02-14T17:22:43.401Z,5.80
2018-02-14T17:25:10.934Z,5.80
2018-02-14T17:27:38.509Z,5.80
2018-02-14T17:30:06.092Z,5.80
2018-02-14T17:32:33.683Z,5.70
2018-02-14T17:35:01.280Z,5.60
2018-02-14T17:37:28.927Z,5.50
2018-02-14T17:39:56.504Z,5.60
2018-02-14T17:42:24.067Z,5.50
2018-02-14T17:44:51.664Z,5.50
2018-02-14T17:47:19.291Z,5.50
2018-02-14T17:49:46.888Z,5.40
2018-02-14T17:52:15.232Z,5.20
2018-02-14T17:54:42.788Z,5.10
2018-02-14T17:57:10.377Z,5.20
2018-02-14T17:59:37.992Z,5.30
2018-02-14T18:02:05.524Z,5.30
2018-02-14T18:04:33.125Z,5.20
2018-02-14T18:07:00.734Z,5.20
2018-02-14T18:09:28.277Z,5.10
2018-02-14T18:11:56.636Z,5.10
2018-02-14T18:14:24.637Z,5.10
2018-02-14T18:16:53.111Z,5.10
2018-02-14T18:19:21.399Z,5.10
2018-02-14T18:21:49.007Z,5.00
2018-02-14T18:24:16.588Z,5.00
2018-02-14T18:26:44.186Z,5.00
2018-02-14T18:29:12.593Z,5.00
2018-02-14T18:31:40.099Z,5.00
2018-02-14T18:34:07.644Z,5.00
2018-02-14T18:36:35.220Z,5.00
2018-02-14T18:39:02.751Z,4.90
2018-02-14T18:41:30.317Z,4.90
2018-02-14T18:43:57.994Z,4.80
2018-02-14T18:46:25.540Z,4.80
2018-02-14T18:48:53.455Z,4.80
2018-02-14T18:51:21.770Z,4.90
2018-02-14T18:53:49.402Z,4.80
2018-02-14T18:56:17.746Z,4.80
2018-02-14T18:58:45.282Z,4.80
2018-02-14T19:01:12.994Z,4.80
2018-02-14T19:03:41.379Z,4.90
2018-02-14T19:06:09.036Z,4.90
2018-02-14T19:08:37.392Z,4.90
2018-02-14T19:11:04.955Z,4.90
2018-02-14T19:13:32.480Z,4.90
2018-02-14T19:16:00.075Z,4.80
2018-02-14T19:18:27.607Z,4.80
2018-02-14T19:20:55.193Z,4.70
2018-02-14T19:23:22.833Z,4.70
2018-02-14T19:25:50.429Z,4.70
2018-02-14T19:28:18.001Z,4.70
2018-02-14T19:30:45.551Z,4.60
2018-02-14T19:33:13.112Z,4.50
2018-02-14T19:35:40.708Z,4.40
2018-02-14T19:38:08.474Z,4.40
2018-02-14T19:40:36.048Z,4.40
2018-02-14T19:43:03.984Z,4.40
2018-02-14T19:45:31.544Z,4.40
2018-02-14T19:47:59.147Z,4.30
2018-02-14T19:50:26.724Z,4.30
2018-02-14T19:52:54.325Z,4.30
2018-02-14T19:55:21.892Z,4.40
2018-02-14T19:57:49.430Z,4.30
2018-02-14T20:00:17.021Z,4.30
2018-02-14T20:02:44.571Z,4.40
2018-02-14T20:05:12.131Z,4.30
2018-02-14T20:07:39.692Z,4.20
2018-02-14T20:10:07.261Z,4.20
2018-02-14T20:12:35.183Z,4.20
2018-02-14T20:15:02.754Z,4.20
2018-02-14T20:17:30.412Z,4.20
2018-02-14T20:19:57.987Z,4.20
2018-02-14T20:22:25.531Z,4.10
2018-02-14T20:24:53.107Z,4.10
2018-02-14T20:27:20.643Z,4.10
2018-02-14T20:29:48.977Z,4.10
2018-02-14T20:32:16.495Z,4.00
2018-02-14T20:34:44.824Z,4.00
2018-02-14T20:37:12.376Z,4.00
2018-02-14T20:39:40.046Z,4.00
2018-02-14T20:42:07.590Z,4.10
2018-02-14T20:44:35.242Z,4.10
2018-02-14T20:47:02.876Z,4.00
2018-02-14T20:49:30.445Z,4.00
2018-02-14T20:51:57.992Z,3.90
2018-02-14T20:54:25.605Z,3.90
2018-02-14T20:56:53.133Z,4.00
2018-02-14T20:59:20.736Z,4.10
2018-02-14T21:01:48.277Z,4.10
2018-02-14T21:04:15.865Z,4.10
2018-02-14T21:06:43.453Z,4.20
2018-02-14T21:09:10.997Z,4.30
2018-02-14T21:11:38.584Z,4.40
2018-02-14T21:14:06.136Z,4.30
2018-02-14T21:16:33.701Z,4.40
2018-02-14T21:19:01.306Z,4.30
2018-02-14T21:21:28.880Z,4.20
2018-02-14T21:23:56.430Z,4.30
2018-02-14T21:26:24.033Z,4.20
2018-02-14T21:28:51.893Z,4.10
2018-02-14T21:31:19.478Z,4.20
2018-02-14T21:33:47.525Z,4.10
2018-02-14T21:36:15.876Z,4.30
2018-02-14T21:38:43.503Z,4.30
2018-02-14T21:41:11.059Z,4.30
2018-02-14T21:43:38.645Z,4.30
2018-02-14T21:46:06.523Z,4.20
2018-02-14T21:48:34.092Z,4.20
2018-02-14T21:51:01.687Z,4.20
2018-02-14T21:53:29.294Z,4.20
2018-02-14T21:55:56.925Z,4.20
2018-02-14T21:58:24.495Z,4.20
2018-02-14T22:00:52.091Z,4.20
2018-02-14T22:03:19.716Z,4.20
2018-02-14T22:05:47.297Z,4.20
2018-02-14T22:08:14.868Z,4.20
2018-02-14T22:10:42.496Z,4.10
2018-02-14T22:13:10.104Z,4.10
2018-02-14T22:15:37.672Z,4.10
2018-02-14T22:18:06.099Z,4.20
2018-02-14T22:20:33.644Z,4.20
2018-02-14T22:23:01.352Z,4.20
2018-02-14T22:25:28.931Z,4.30
2018-02-14T22:27:56.526Z,4.20
2018-02-14T22:30:24.076Z,4.20
2018-02-14T22:32:51.668Z,4.20
2018-02-14T22:35:19.271Z,4.40
2018-02-14T22:37:46.891Z,4.30
2018-02-14T22:40:14.442Z,4.30
2018-02-14T22:42:41.999Z,4.40
2018-02-14T22:45:09.543Z,4.40
2018-02-14T22:47:37.173Z,4.40
2018-02-14T22:50:04.722Z,4.50
2018-02-14T22:52:32.344Z,4.30
2018-02-14T22:54:59.904Z,4.30
2018-02-14T22:57:27.518Z,4.30
2018-02-14T22:59:55.876Z,4.30
2018-02-14T23:02:23.404Z,4.30
2018-02-14T23:04:50.983Z,4.20
2018-02-14T23:07:18.532Z,4.30
2018-02-14T23:09:46.078Z,4.30
2018-02-14T23:12:13.635Z,4.30
2018-02-14T23:14:41.179Z,4.30
2018-02-14T23:17:08.774Z,4.40
2018-02-14T23:19:36.335Z,4.40
2018-02-14T23:22:03.894Z,4.40
2018-02-14T23:24:31.436Z,4.40
2018-02-14T23:26:59.011Z,4.40
2018-02-14T23:29:26.566Z,4.30
2018-02-14T23:31:54.131Z,4.30
2018-02-14T23:34:21.670Z,4.30
2018-02-14T23:36:49.302Z,4.10
2018-02-14T23:39:17.634Z,4.20
2018-02-14T23:41:45.545Z,4.10
2018-02-14T23:44:13.211Z,4.10
2018-02-14T23:46:41.486Z,4.10
2018-02-14T23:49:09.151Z,4.10
2018-02-14T23:51:37.774Z,4.10
2018-02-14T23:54:05.329Z,4.20
2018-02-14T23:56:32.908Z,4.20
2018-02-14T23:59:00.519Z,4.00
